Check out our new BloomSky Weather System.

Active alerts


No alerts


Thunder radar  blitzortung!


Rain radar more information rain snow radar


Visit our other weather sites:

Template documentation
and downloads

And another site



Weather Underground History page Text

Daily Summary for April 20, 2017 Units:  English    Metric   Both
« Previous Day
Next Day »
Daily Weekly Monthly Yearly Custom
  High: Low: Average:
Temperature: 86.7 °F 68.7 °F 77 °F
Dew Point: 72.5 °F 68.2 °F 70 °F
Humidity: 99 % 55 % 81 %
Wind Speed: 11.0 mph 0.0 mph 2.5 mph
Wind Gust: 16.0 mph - -
Wind:- - SE
Pressure: 30.05 in 29.93 in -
Precipitation: 0.00 in    
Historical Graphs
 
 
Tabular Data for April 20, 2017
Time Temperature Dew Point Pressure Wind Wind Speed Wind Gust Humidity Rainfall Rate (Hourly)
00:03 73.0 °F 70.5 °F 30.04 in East 6.0 mph 6.0 mph 92 % 0.00 in
00:08 73.0 °F 70.5 °F 30.04 in SE 5.0 mph 8.0 mph 92 % 0.00 in
00:13 73.0 °F 70.5 °F 30.04 in East 5.0 mph 8.0 mph 92 % 0.00 in
00:18 73.0 °F 70.5 °F 30.04 in SE 4.0 mph 8.0 mph 92 % 0.00 in
00:23 72.9 °F 70.3 °F 30.04 in SE 4.0 mph 8.0 mph 92 % 0.00 in
00:28 72.9 °F 70.3 °F 30.04 in SE 3.0 mph 8.0 mph 92 % 0.00 in
00:33 72.9 °F 70.7 °F 30.04 in ESE 4.0 mph 8.0 mph 93 % 0.00 in
00:38 72.9 °F 70.7 °F 30.04 in SE 3.0 mph 7.0 mph 93 % 0.00 in
00:43 73.0 °F 70.9 °F 30.04 in SE 3.0 mph 7.0 mph 93 % 0.00 in
00:48 72.9 °F 70.3 °F 30.04 in SSE 2.0 mph 7.0 mph 92 % 0.00 in
00:53 72.9 °F 70.7 °F 30.04 in SSE 2.0 mph 7.0 mph 93 % 0.00 in
00:58 72.7 °F 70.5 °F 30.04 in SE 3.0 mph 7.0 mph 93 % 0.00 in
01:03 72.7 °F 70.5 °F 30.04 in SE 2.0 mph 7.0 mph 93 % 0.00 in
01:08 72.7 °F 70.5 °F 30.03 in SSE 1.0 mph 7.0 mph 93 % 0.00 in
01:13 72.5 °F 70.3 °F 30.03 in SSW 5.0 mph 6.0 mph 93 % 0.00 in
01:18 72.5 °F 70.3 °F 30.03 in SE 2.0 mph 6.0 mph 93 % 0.00 in
01:23 72.3 °F 70.5 °F 30.03 in East 4.0 mph 6.0 mph 94 % 0.00 in
01:28 72.3 °F 70.5 °F 30.03 in ESE 4.0 mph 7.0 mph 94 % 0.00 in
01:38 72.3 °F 70.5 °F 30.03 in ESE 3.0 mph 8.0 mph 94 % 0.00 in
01:43 72.3 °F 70.5 °F 30.03 in SE 1.0 mph 8.0 mph 94 % 0.00 in
01:48 72.1 °F 70.3 °F 30.03 in SSE 1.0 mph 6.0 mph 94 % 0.00 in
01:53 72.1 °F 70.3 °F 30.03 in SE 2.0 mph 6.0 mph 94 % 0.00 in
01:58 72.1 °F 70.3 °F 30.02 in SE 2.0 mph 5.0 mph 94 % 0.00 in
02:03 72.1 °F 70.3 °F 30.02 in SSE 3.0 mph 5.0 mph 94 % 0.00 in
02:08 72.0 °F 70.2 °F 30.02 in SSE 2.0 mph 7.0 mph 94 % 0.00 in
02:13 72.0 °F 70.2 °F 30.01 in South 1.0 mph 7.0 mph 94 % 0.00 in
02:18 72.0 °F 70.5 °F 30.01 in SE 3.0 mph 7.0 mph 95 % 0.00 in
02:24 71.8 °F 70.3 °F 30.01 in SE 3.0 mph 6.0 mph 95 % 0.00 in
02:29 71.8 °F 70.3 °F 30.01 in Calm   5.0 mph 95 % 0.00 in
02:34 71.8 °F 70.3 °F 30.01 in Calm   5.0 mph 95 % 0.00 in
02:39 71.8 °F 70.3 °F 30.01 in Calm   4.0 mph 95 % 0.00 in
02:44 71.6 °F 70.2 °F 30.01 in Calm   3.0 mph 95 % 0.00 in
02:49 71.6 °F 70.2 °F 30.01 in SSE 1.0 mph 3.0 mph 95 % 0.00 in
02:54 71.4 °F 70.0 °F 30.01 in Calm   3.0 mph 95 % 0.00 in
02:59 71.4 °F 70.0 °F 30.01 in East 2.0 mph 3.0 mph 95 % 0.00 in
03:04 71.4 °F 70.2 °F 30.01 in SE 1.0 mph 2.0 mph 96 % 0.00 in
03:09 71.4 °F 70.2 °F 30.01 in SE 1.0 mph 3.0 mph 96 % 0.00 in
03:14 71.4 °F 70.2 °F 30.01 in ESE 1.0 mph 3.0 mph 96 % 0.00 in
03:19 71.4 °F 70.2 °F 30.01 in SE 1.0 mph 3.0 mph 96 % 0.00 in
03:24 71.4 °F 70.2 °F 30.01 in Calm   3.0 mph 96 % 0.00 in
03:29 71.4 °F 70.2 °F 30.01 in Calm   3.0 mph 96 % 0.00 in
03:34 71.4 °F 70.2 °F 30.01 in Calm   3.0 mph 96 % 0.00 in
03:39 71.4 °F 70.2 °F 30.00 in Calm   2.0 mph 96 % 0.00 in
03:44 71.4 °F 70.2 °F 30.00 in Calm   2.0 mph 96 % 0.00 in
03:49 71.4 °F 70.2 °F 30.00 in East 1.0 mph 2.0 mph 96 % 0.00 in
03:54 71.4 °F 70.2 °F 30.00 in Calm   2.0 mph 96 % 0.00 in
03:59 71.4 °F 70.2 °F 30.00 in Calm   2.0 mph 96 % 0.00 in
04:09 71.2 °F 70.0 °F 30.00 in Calm   2.0 mph 96 % 0.00 in
04:14 71.2 °F 70.0 °F 30.00 in Calm   1.0 mph 96 % 0.00 in
04:19 71.2 °F 70.0 °F 30.00 in Calm   1.0 mph 96 % 0.00 in
04:24 71.1 °F 69.8 °F 30.00 in Calm   1.0 mph 96 % 0.00 in
04:29 71.1 °F 70.2 °F 30.00 in SE 1.0 mph 2.0 mph 97 % 0.00 in
04:34 71.1 °F 70.2 °F 30.00 in SE 1.0 mph 2.0 mph 97 % 0.00 in
04:39 70.9 °F 70.0 °F 30.00 in Calm   2.0 mph 97 % 0.00 in
04:44 70.9 °F 70.0 °F 30.00 in Calm   2.0 mph 97 % 0.00 in
04:49 70.7 °F 69.8 °F 30.00 in Calm   2.0 mph 97 % 0.00 in
04:54 70.5 °F 69.6 °F 30.00 in ESE 1.0 mph 2.0 mph 97 % 0.00 in
04:59 70.5 °F 69.6 °F 29.99 in ESE 2.0 mph 3.0 mph 97 % 0.00 in
05:04 70.5 °F 69.6 °F 29.99 in SE 1.0 mph 3.0 mph 97 % 0.00 in
05:09 70.3 °F 69.4 °F 29.99 in Calm   3.0 mph 97 % 0.00 in
05:14 70.3 °F 69.4 °F 29.99 in ESE 1.0 mph 3.0 mph 97 % 0.00 in
05:19 70.3 °F 69.4 °F 30.00 in Calm   3.0 mph 97 % 0.00 in
05:24 70.2 °F 69.3 °F 30.00 in Calm   3.0 mph 97 % 0.00 in
05:29 70.0 °F 69.1 °F 30.00 in Calm   2.0 mph 97 % 0.00 in
05:34 70.0 °F 69.1 °F 30.00 in Calm   2.0 mph 97 % 0.00 in
05:39 70.0 °F 69.1 °F 30.00 in Calm   2.0 mph 97 % 0.00 in
05:44 69.8 °F 68.9 °F 30.00 in Calm   1.0 mph 97 % 0.00 in
05:45 69.6 °F 68.7 °F 30.00 in Calm   1.0 mph 97 % 0.00 in
05:50 69.6 °F 68.7 °F 30.00 in Calm   1.0 mph 97 % 0.00 in
05:55 69.6 °F 68.7 °F 30.00 in Calm   1.0 mph 97 % 0.00 in
06:00 69.6 °F 69.1 °F 30.00 in Calm   1.0 mph 98 % 0.00 in
06:05 69.6 °F 69.1 °F 30.00 in Calm   1.0 mph 98 % 0.00 in
06:06 69.6 °F 69.1 °F 30.00 in Calm   1.0 mph 98 % 0.00 in
06:11 69.4 °F 68.9 °F 30.00 in Calm   1.0 mph 98 % 0.00 in
06:16 69.4 °F 68.9 °F 30.00 in Calm   1.0 mph 98 % 0.00 in
06:21 69.3 °F 68.7 °F 30.01 in Calm     98 % 0.00 in
06:26 69.3 °F 68.7 °F 30.01 in Calm     98 % 0.00 in
06:31 69.1 °F 68.5 °F 30.01 in Calm     98 % 0.00 in
06:36 69.1 °F 68.5 °F 30.01 in Calm     98 % 0.00 in
06:41 68.9 °F 68.4 °F 30.01 in Calm   1.0 mph 98 % 0.00 in
06:46 68.9 °F 68.4 °F 30.01 in Calm   1.0 mph 98 % 0.00 in
06:51 68.7 °F 68.2 °F 30.01 in Calm   1.0 mph 98 % 0.00 in
06:56 68.7 °F 68.2 °F 30.01 in Calm   1.0 mph 98 % 0.00 in
07:01 68.7 °F 68.2 °F 30.01 in Calm   1.0 mph 98 % 0.00 in
07:06 68.7 °F 68.2 °F 30.02 in Calm   1.0 mph 98 % 0.00 in
07:11 68.7 °F 68.2 °F 30.02 in Calm   1.0 mph 98 % 0.00 in
07:16 68.7 °F 68.2 °F 30.02 in Calm   1.0 mph 98 % 0.00 in
07:21 68.9 °F 68.4 °F 30.02 in Calm   1.0 mph 98 % 0.00 in
07:26 68.9 °F 68.4 °F 30.02 in Calm   1.0 mph 98 % 0.00 in
07:31 69.1 °F 68.5 °F 30.02 in Calm   1.0 mph 98 % 0.00 in
07:36 69.3 °F 68.9 °F 30.03 in Calm   1.0 mph 99 % 0.00 in
07:41 69.6 °F 69.3 °F 30.03 in Calm   1.0 mph 99 % 0.00 in
07:46 70.2 °F 69.8 °F 30.03 in Calm   1.0 mph 99 % 0.00 in
07:51 70.3 °F 70.0 °F 30.03 in Calm   1.0 mph 99 % 0.00 in
07:56 70.9 °F 70.5 °F 30.03 in Calm   1.0 mph 99 % 0.00 in
08:02 71.1 °F 70.7 °F 30.04 in Calm   1.0 mph 99 % 0.00 in
08:07 71.2 °F 70.9 °F 30.04 in Calm   1.0 mph 99 % 0.00 in
08:12 71.6 °F 71.2 °F 30.04 in Calm   1.0 mph 99 % 0.00 in
08:22 71.8 °F 71.2 °F 30.04 in Calm   2.0 mph 98 % 0.00 in
08:27 72.1 °F 71.6 °F 30.04 in SE 1.0 mph 2.0 mph 98 % 0.00 in
08:32 72.7 °F 72.1 °F 30.04 in SE 2.0 mph 2.0 mph 98 % 0.00 in
08:37 72.7 °F 72.1 °F 30.04 in East 2.0 mph 3.0 mph 98 % 0.00 in
08:42 73.0 °F 72.1 °F 30.04 in ESE 1.0 mph 5.0 mph 97 % 0.00 in
08:43 73.0 °F 72.1 °F 30.04 in ESE 2.0 mph 5.0 mph 97 % 0.00 in
08:48 73.4 °F 72.5 °F 30.04 in SSE 2.0 mph 5.0 mph 97 % 0.00 in
08:58 73.8 °F 72.3 °F 30.04 in South 3.0 mph 6.0 mph 95 % 0.00 in
09:03 73.9 °F 72.1 °F 30.04 in ESE 3.0 mph 6.0 mph 94 % 0.00 in
09:08 73.9 °F 72.1 °F 30.04 in SE 1.0 mph 6.0 mph 94 % 0.00 in
09:09 73.9 °F 72.1 °F 30.04 in SE 1.0 mph 6.0 mph 94 % 0.00 in
09:14 74.1 °F 72.0 °F 30.04 in South 1.0 mph 6.0 mph 93 % 0.00 in
09:19 74.1 °F 72.0 °F 30.04 in SSE 2.0 mph 7.0 mph 93 % 0.00 in
09:24 74.1 °F 71.6 °F 30.04 in South 3.0 mph 7.0 mph 92 % 0.00 in
09:29 74.3 °F 71.4 °F 30.04 in SSW 6.0 mph 8.0 mph 91 % 0.00 in
09:34 74.8 °F 72.0 °F 30.04 in SSE 3.0 mph 8.0 mph 91 % 0.00 in
09:35 74.8 °F 72.0 °F 30.05 in SSE 3.0 mph 8.0 mph 91 % 0.00 in
09:40 75.6 °F 71.8 °F 30.04 in ESE 3.0 mph 9.0 mph 88 % 0.00 in
09:45 76.5 °F 72.0 °F 30.04 in SSE 6.0 mph 12.0 mph 86 % 0.00 in
09:50 77.4 °F 72.5 °F 30.04 in SSE 3.0 mph 12.0 mph 85 % 0.00 in
09:52 77.5 °F 72.3 °F 30.04 in South 6.0 mph 12.0 mph 84 % 0.00 in
09:57 77.7 °F 70.7 °F 30.05 in South 6.0 mph 12.0 mph 79 % 0.00 in
10:02 77.4 °F 70.7 °F 30.05 in SE 6.0 mph 10.0 mph 80 % 0.00 in
10:07 77.0 °F 71.4 °F 30.05 in SSE 2.0 mph 10.0 mph 83 % 0.00 in
10:12 76.8 °F 70.9 °F 30.05 in SE 4.0 mph 10.0 mph 82 % 0.00 in
10:17 77.4 °F 71.4 °F 30.05 in SE 2.0 mph 10.0 mph 82 % 0.00 in
10:22 78.1 °F 71.1 °F 30.05 in SSE 6.0 mph 12.0 mph 79 % 0.00 in
10:27 78.6 °F 70.9 °F 30.05 in SE 6.0 mph 12.0 mph 77 % 0.00 in
10:32 79.0 °F 70.7 °F 30.05 in SE 6.0 mph 12.0 mph 76 % 0.00 in
10:37 79.3 °F 70.0 °F 30.05 in SE 7.0 mph 13.0 mph 73 % 0.00 in
10:42 79.9 °F 69.6 °F 30.05 in South 11.0 mph 13.0 mph 71 % 0.00 in
10:47 80.2 °F 69.6 °F 30.05 in ESE 11.0 mph 13.0 mph 70 % 0.00 in
10:52 79.7 °F 69.4 °F 30.05 in South 8.0 mph 16.0 mph 71 % 0.00 in
10:57 79.9 °F 70.9 °F 30.05 in South 4.0 mph 16.0 mph 74 % 0.00 in
11:02 79.7 °F 71.4 °F 30.05 in South 3.0 mph 16.0 mph 76 % 0.00 in
11:07 80.2 °F 71.2 °F 30.05 in SE 5.0 mph 8.0 mph 74 % 0.00 in
11:12 80.2 °F 71.2 °F 30.05 in SSE 1.0 mph 8.0 mph 74 % 0.00 in
11:17 80.6 °F 71.1 °F 30.05 in South 6.0 mph 10.0 mph 73 % 0.00 in
11:22 81.1 °F 70.9 °F 30.05 in SE 5.0 mph 10.0 mph 71 % 0.00 in
11:27 80.4 °F 70.2 °F 30.05 in SSW 4.0 mph 10.0 mph 71 % 0.00 in
11:32 80.1 °F 70.7 °F 30.05 in East 2.0 mph 9.0 mph 73 % 0.00 in
11:37 80.8 °F 70.9 °F 30.05 in SSE 5.0 mph 8.0 mph 72 % 0.00 in
11:42 81.3 °F 71.4 °F 30.05 in SE 6.0 mph 8.0 mph 72 % 0.00 in
11:47 81.9 °F 70.3 °F 30.04 in SW 4.0 mph 8.0 mph 68 % 0.00 in
11:52 81.9 °F 70.3 °F 30.04 in SE 4.0 mph 8.0 mph 68 % 0.00 in
11:57 82.0 °F 70.3 °F 30.04 in SE 4.0 mph 8.0 mph 68 % 0.00 in
12:02 82.2 °F 70.2 °F 30.04 in SE 3.0 mph 8.0 mph 67 % 0.00 in
12:07 82.8 °F 71.1 °F 30.04 in SE 8.0 mph 8.0 mph 68 % 0.00 in
12:12 82.9 °F 70.9 °F 30.04 in SW 1.0 mph 9.0 mph 67 % 0.00 in
12:17 83.1 °F 70.2 °F 30.04 in South 3.0 mph 9.0 mph 65 % 0.00 in
12:18 83.1 °F 70.5 °F 30.04 in SW 1.0 mph 9.0 mph 66 % 0.00 in
12:23 83.7 °F 71.1 °F 30.04 in SSE 2.0 mph 9.0 mph 66 % 0.00 in
12:28 83.7 °F 70.2 °F 30.04 in SSE 2.0 mph 8.0 mph 64 % 0.00 in
12:33 83.8 °F 70.3 °F 30.03 in SSW 4.0 mph 8.0 mph 64 % 0.00 in
12:38 84.0 °F 70.0 °F 30.03 in ENE 5.0 mph 9.0 mph 63 % 0.00 in
12:43 84.4 °F 70.3 °F 30.03 in SSW 4.0 mph 9.0 mph 63 % 0.00 in
12:48 84.4 °F 70.3 °F 30.03 in ESE 3.0 mph 9.0 mph 63 % 0.00 in
12:53 84.4 °F 70.3 °F 30.03 in SE 2.0 mph 9.0 mph 63 % 0.00 in
12:58 84.6 °F 70.2 °F 30.02 in SSE 5.0 mph 9.0 mph 62 % 0.00 in
13:03 83.8 °F 69.4 °F 30.02 in ESE 5.0 mph 9.0 mph 62 % 0.00 in
13:08 84.2 °F 70.7 °F 30.02 in East 6.0 mph 9.0 mph 64 % 0.00 in
13:13 84.4 °F 70.0 °F 30.02 in ESE 4.0 mph 10.0 mph 62 % 0.00 in
13:18 84.9 °F 70.0 °F 30.02 in South 2.0 mph 10.0 mph 61 % 0.00 in
13:23 85.1 °F 68.7 °F 30.02 in SSE 6.0 mph 10.0 mph 58 % 0.00 in
13:28 84.9 °F 68.9 °F 30.01 in East 3.0 mph 9.0 mph 59 % 0.00 in
13:33 85.8 °F 70.9 °F 30.01 in Calm   9.0 mph 61 % 0.00 in
13:38 86.2 °F 69.1 °F 30.01 in ESE 5.0 mph 9.0 mph 57 % 0.00 in
13:43 85.3 °F 68.4 °F 30.01 in ESE 5.0 mph 16.0 mph 57 % 0.00 in
13:48 84.9 °F 69.4 °F 30.01 in ESE 7.0 mph 16.0 mph 60 % 0.00 in
13:53 84.9 °F 68.9 °F 30.00 in SSE 4.0 mph 16.0 mph 59 % 0.00 in
13:58 85.3 °F 68.9 °F 30.00 in ESE 4.0 mph 10.0 mph 58 % 0.00 in
14:03 84.6 °F 68.7 °F 30.00 in ESE 3.0 mph 10.0 mph 59 % 0.00 in
14:08 84.0 °F 68.7 °F 30.00 in East 4.0 mph 10.0 mph 60 % 0.00 in
14:13 84.0 °F 69.1 °F 29.99 in NE 1.0 mph 9.0 mph 61 % 0.00 in
14:23 84.4 °F 69.4 °F 29.99 in SSE 4.0 mph 10.0 mph 61 % 0.00 in
14:29 84.6 °F 68.2 °F 29.99 in East 4.0 mph 10.0 mph 58 % 0.00 in
14:34 84.4 °F 68.9 °F 29.99 in South 5.0 mph 10.0 mph 60 % 0.00 in
14:39 84.0 °F 69.1 °F 29.99 in SE 1.0 mph 10.0 mph 61 % 0.00 in
14:44 84.4 °F 70.3 °F 29.99 in SSE 3.0 mph 10.0 mph 63 % 0.00 in
14:49 85.5 °F 70.9 °F 29.99 in SSE 4.0 mph 7.0 mph 62 % 0.00 in
14:54 86.2 °F 69.1 °F 29.99 in SE 6.0 mph 9.0 mph 57 % 0.00 in
14:59 86.4 °F 69.3 °F 29.98 in SSW 5.0 mph 11.0 mph 57 % 0.00 in
15:04 86.7 °F 68.5 °F 29.98 in East 1.0 mph 11.0 mph 55 % 0.00 in
15:09 85.6 °F 69.1 °F 29.98 in SE 7.0 mph 11.0 mph 58 % 0.00 in
15:14 84.9 °F 69.4 °F 29.98 in ESE 3.0 mph 11.0 mph 60 % 0.00 in
15:19 84.9 °F 69.4 °F 29.97 in SE 2.0 mph 11.0 mph 60 % 0.00 in
15:24 84.9 °F 69.4 °F 29.97 in SSW 2.0 mph 11.0 mph 60 % 0.00 in
15:29 84.7 °F 69.3 °F 29.97 in South 5.0 mph 8.0 mph 60 % 0.00 in
15:34 84.4 °F 70.0 °F 29.96 in ESE 3.0 mph 9.0 mph 62 % 0.00 in
15:39 84.4 °F 70.0 °F 29.96 in East 2.0 mph 9.0 mph 62 % 0.00 in
15:44 84.4 °F 70.3 °F 29.96 in WSW 3.0 mph 9.0 mph 63 % 0.00 in
15:49 84.6 °F 71.1 °F 29.96 in SSE 1.0 mph 6.0 mph 64 % 0.00 in
15:54 84.4 °F 70.3 °F 29.96 in Calm   6.0 mph 63 % 0.00 in
15:59 84.7 °F 70.7 °F 29.95 in Calm   6.0 mph 63 % 0.00 in
16:04 84.9 °F 70.5 °F 29.95 in ESE 2.0 mph 5.0 mph 62 % 0.00 in
16:09 84.9 °F 70.0 °F 29.95 in SSE 1.0 mph 8.0 mph 61 % 0.00 in
16:14 85.3 °F 70.7 °F 29.95 in ESE 3.0 mph 8.0 mph 62 % 0.00 in
16:19 85.3 °F 69.8 °F 29.94 in Calm   8.0 mph 60 % 0.00 in
16:24 84.7 °F 69.8 °F 29.94 in ENE 2.0 mph 7.0 mph 61 % 0.00 in
16:29 84.6 °F 69.6 °F 29.94 in North 4.0 mph 6.0 mph 61 % 0.00 in
16:34 84.4 °F 70.0 °F 29.94 in ESE 3.0 mph 6.0 mph 62 % 0.00 in
16:39 84.4 °F 70.0 °F 29.94 in SSE 4.0 mph 6.0 mph 62 % 0.00 in
16:44 84.2 °F 69.8 °F 29.94 in Calm   6.0 mph 62 % 0.00 in
16:49 84.2 °F 70.2 °F 29.94 in SE 2.0 mph 7.0 mph 63 % 0.00 in
16:54 84.2 °F 69.8 °F 29.94 in SE 4.0 mph 7.0 mph 62 % 0.00 in
16:59 84.0 °F 69.6 °F 29.94 in ESE 2.0 mph 7.0 mph 62 % 0.00 in
17:04 84.0 °F 69.6 °F 29.94 in SE 2.0 mph 7.0 mph 62 % 0.00 in
17:09 84.4 °F 70.0 °F 29.94 in ESE 2.0 mph 7.0 mph 62 % 0.00 in
17:14 84.4 °F 69.4 °F 29.94 in SE 2.0 mph 6.0 mph 61 % 0.00 in
17:19 84.2 °F 70.2 °F 29.94 in SE 5.0 mph 9.0 mph 63 % 0.00 in
17:24 83.8 °F 70.3 °F 29.94 in East 5.0 mph 9.0 mph 64 % 0.00 in
17:29 83.7 °F 70.7 °F 29.94 in ENE 1.0 mph 9.0 mph 65 % 0.00 in
17:34 83.5 °F 70.9 °F 29.94 in ESE 1.0 mph 8.0 mph 66 % 0.00 in
17:39 83.1 °F 70.2 °F 29.94 in ESE 1.0 mph 8.0 mph 65 % 0.00 in
17:44 83.1 °F 70.5 °F 29.94 in Calm   8.0 mph 66 % 0.00 in
17:49 82.9 °F 70.0 °F 29.94 in SE 6.0 mph 6.0 mph 65 % 0.00 in
17:54 82.9 °F 70.0 °F 29.94 in ESE 1.0 mph 8.0 mph 65 % 0.00 in
17:59 83.1 °F 70.2 °F 29.94 in SSE 3.0 mph 8.0 mph 65 % 0.00 in
18:04 82.9 °F 70.3 °F 29.94 in SE 3.0 mph 8.0 mph 66 % 0.00 in
18:09 82.8 °F 70.2 °F 29.94 in SE 6.0 mph 8.0 mph 66 % 0.00 in
18:14 82.6 °F 70.9 °F 29.93 in ESE 5.0 mph 9.0 mph 68 % 0.00 in
18:19 82.2 °F 70.5 °F 29.94 in SE 1.0 mph 9.0 mph 68 % 0.00 in
18:24 82.0 °F 70.3 °F 29.94 in SE 1.0 mph 9.0 mph 68 % 0.00 in
18:29 82.0 °F 70.9 °F 29.94 in ESE 3.0 mph 9.0 mph 69 % 0.00 in
18:34 81.9 °F 70.3 °F 29.93 in East 3.0 mph 9.0 mph 68 % 0.00 in
18:39 81.7 °F 70.2 °F 29.94 in SE 3.0 mph 11.0 mph 68 % 0.00 in
18:44 81.7 °F 70.5 °F 29.94 in East 3.0 mph 11.0 mph 69 % 0.00 in
18:49 81.5 °F 70.3 °F 29.94 in SE 2.0 mph 11.0 mph 69 % 0.00 in
18:54 81.3 °F 70.2 °F 29.94 in SE 4.0 mph 8.0 mph 69 % 0.00 in
18:59 81.3 °F 70.2 °F 29.94 in ESE 6.0 mph 7.0 mph 69 % 0.00 in
19:05 81.3 °F 70.2 °F 29.94 in ESE 3.0 mph 9.0 mph 69 % 0.00 in
19:10 81.3 °F 70.2 °F 29.93 in SE 2.0 mph 9.0 mph 69 % 0.00 in
19:15 81.3 °F 70.2 °F 29.94 in SE 2.0 mph 9.0 mph 69 % 0.00 in
19:20 81.1 °F 70.3 °F 29.94 in SE 1.0 mph 7.0 mph 70 % 0.00 in
19:25 81.0 °F 70.2 °F 29.94 in East 4.0 mph 6.0 mph 70 % 0.00 in
19:30 81.0 °F 69.8 °F 29.94 in SSE 3.0 mph 6.0 mph 69 % 0.00 in
19:35 81.0 °F 69.8 °F 29.94 in Calm   7.0 mph 69 % 0.00 in
19:40 81.0 °F 69.8 °F 29.94 in SE 6.0 mph 7.0 mph 69 % 0.00 in
19:45 80.8 °F 69.6 °F 29.94 in East 5.0 mph 7.0 mph 69 % 0.00 in
19:50 80.8 °F 69.6 °F 29.94 in SE 2.0 mph 7.0 mph 69 % 0.00 in
19:55 80.4 °F 69.3 °F 29.94 in SSE 3.0 mph 7.0 mph 69 % 0.00 in
20:00 80.2 °F 69.6 °F 29.94 in South 5.0 mph 8.0 mph 70 % 0.00 in
20:05 80.1 °F 69.4 °F 29.94 in ESE 3.0 mph 8.0 mph 70 % 0.00 in
20:10 80.1 °F 69.8 °F 29.94 in SE 4.0 mph 9.0 mph 71 % 0.00 in
20:15 79.7 °F 69.8 °F 29.94 in South 5.0 mph 9.0 mph 72 % 0.00 in
20:20 79.3 °F 69.4 °F 29.94 in SSE 7.0 mph 8.0 mph 72 % 0.00 in
20:25 79.2 °F 69.8 °F 29.95 in South 4.0 mph 7.0 mph 73 % 0.00 in
20:30 79.0 °F 70.0 °F 29.95 in SSE 6.0 mph 10.0 mph 74 % 0.00 in
20:35 78.6 °F 70.0 °F 29.95 in SSE 5.0 mph 10.0 mph 75 % 0.00 in
20:40 78.4 °F 69.8 °F 29.95 in South 3.0 mph 10.0 mph 75 % 0.00 in
20:45 78.3 °F 69.6 °F 29.95 in SSE 3.0 mph 8.0 mph 75 % 0.00 in
20:50 78.3 °F 69.6 °F 29.96 in South 3.0 mph 8.0 mph 75 % 0.00 in
20:55 78.1 °F 69.4 °F 29.96 in SE 6.0 mph 8.0 mph 75 % 0.00 in
21:00 77.7 °F 69.1 °F 29.96 in SSW 4.0 mph 9.0 mph 75 % 0.00 in
21:05 77.7 °F 69.6 °F 29.96 in SSE 4.0 mph 9.0 mph 76 % 0.00 in
21:10 77.4 °F 69.3 °F 29.96 in ESE 2.0 mph 9.0 mph 76 % 0.00 in
21:15 77.4 °F 69.6 °F 29.96 in ESE 3.0 mph 6.0 mph 77 % 0.00 in
21:20 77.2 °F 69.4 °F 29.96 in SE 2.0 mph 6.0 mph 77 % 0.00 in
21:25 76.8 °F 69.1 °F 29.96 in ESE 3.0 mph 6.0 mph 77 % 0.00 in
21:30 76.6 °F 69.3 °F 29.97 in ESE 5.0 mph 7.0 mph 78 % 0.00 in
21:35 76.5 °F 69.4 °F 29.97 in SSE 2.0 mph 7.0 mph 79 % 0.00 in
21:40 76.3 °F 69.3 °F 29.97 in SE 2.0 mph 7.0 mph 79 % 0.00 in
21:45 76.1 °F 69.4 °F 29.97 in SSE 2.0 mph 7.0 mph 80 % 0.00 in
21:50 75.7 °F 69.4 °F 29.97 in SE 2.0 mph 7.0 mph 81 % 0.00 in
21:55 75.6 °F 69.3 °F 29.97 in SE 2.0 mph 7.0 mph 81 % 0.00 in
22:00 75.6 °F 69.6 °F 29.98 in SE 3.0 mph 7.0 mph 82 % 0.00 in
22:05 75.4 °F 69.4 °F 29.98 in SSE 1.0 mph 8.0 mph 82 % 0.00 in
22:11 75.2 °F 69.6 °F 29.98 in SSE 4.0 mph 8.0 mph 83 % 0.00 in
22:15 75.0 °F 69.4 °F 29.98 in SSE 3.0 mph 8.0 mph 83 % 0.00 in
22:20 74.8 °F 69.6 °F 29.98 in SE 3.0 mph 7.0 mph 84 % 0.00 in
22:25 74.7 °F 69.4 °F 29.98 in SSE 1.0 mph 6.0 mph 84 % 0.00 in
22:30 74.7 °F 69.8 °F 29.98 in ESE 2.0 mph 5.0 mph 85 % 0.00 in
22:46 74.3 °F 69.8 °F 29.98 in SE 2.0 mph 6.0 mph 86 % 0.00 in
22:51 74.1 °F 69.6 °F 29.98 in SE 1.0 mph 6.0 mph 86 % 0.00 in
22:56 74.1 °F 69.6 °F 29.98 in SSW 2.0 mph 6.0 mph 86 % 0.00 in
23:01 73.9 °F 69.8 °F 29.98 in South 1.0 mph 6.0 mph 87 % 0.00 in
23:06 73.8 °F 69.6 °F 29.98 in SSE 2.0 mph 6.0 mph 87 % 0.00 in
23:11 73.4 °F 69.6 °F 29.98 in SE 1.0 mph 5.0 mph 88 % 0.00 in
23:16 73.2 °F 69.4 °F 29.98 in SSE 2.0 mph 4.0 mph 88 % 0.00 in
23:21 73.2 °F 69.8 °F 29.98 in SE 3.0 mph 5.0 mph 89 % 0.00 in
23:26 73.2 °F 69.8 °F 29.98 in SSE 3.0 mph 5.0 mph 89 % 0.00 in
23:31 73.2 °F 69.8 °F 29.98 in SE 2.0 mph 5.0 mph 89 % 0.00 in
23:36 73.0 °F 69.6 °F 29.98 in SE 3.0 mph 5.0 mph 89 % 0.00 in
23:41 73.0 °F 70.0 °F 29.98 in SSE 2.0 mph 5.0 mph 90 % 0.00 in
23:46 72.9 °F 69.8 °F 29.97 in South 2.0 mph 5.0 mph 90 % 0.00 in
23:51 72.9 °F 69.8 °F 29.97 in SSE 2.0 mph 5.0 mph 90 % 0.00 in
23:56 72.9 °F 70.2 °F 29.97 in SSE 3.0 mph 5.0 mph 91 % 0.00 in
Spring, Texas: Villages of Bridgestone
Compliments of Weather Underground - 2.75 mb

Script developed by  Jim McMurry - jmcmurry@mwt.net Adapted for the template by  Wim van der Kuil - Leuven-Template.eu

You find our weather info also at:

UK Metoffice

WeatherCloud

Weather Underground

Mid-South Weather Network

AWEKAS

Citizen Weather Observer Program (CWOP)

HAMweather, WeatherForYou, PWS Weather

Equipment we use:

Weather-station
Davis Vantage Vue

Weather-program
Meteohub

Weather-server
Debian 7.9 x86 (Guest)

Provider
DreamHost

Davis Vantage Vue

Meteohub

Debian 7.9 x86 (Guest)

DreamHost